Rimforest, California
Current Conditions -  °F | °C
As of 4:50 PM on Tuesday 21 Oct 2014 (Local Time) from KSBD Reporting Station
Broken Clouds Broken Clouds  
Wind Chill: 81°   Ceiling: 15000
Heat Index: 81°   Visibility: 10mi
Dew Point: 43°   Wind: 7mph
Humidity: 26%   Direction: 220°SW
Pressure: 29.84"   Gusts: NA
Location:  34.23°N, 117.23°W
Report Text: KSBD 212350Z 22006KT 10SM BKN150 27/06 A2984
Loading
Personal Weather Stations






























Interactive Weather Map
Tropical Storm Tracking
New forecast layout! Learn more

10-Day Weather Forecast

Advertisements
Track Severe Weather on mobile